sensor_id;sensor_type;location;lat;lon;timestamp;temperature;humidity
61016;DHT22;46902;52.920;6.536;2022-09-11T00:01:01;15.10;99.90
61016;DHT22;46902;52.920;6.536;2022-09-11T00:03:28;15.10;99.90
61016;DHT22;46902;52.920;6.536;2022-09-11T00:05:54;15.10;99.90
61016;DHT22;46902;52.920;6.536;2022-09-11T00:08:20;15.10;99.90
61016;DHT22;46902;52.920;6.536;2022-09-11T00:10:46;15.10;99.90
61016;DHT22;46902;52.920;6.536;2022-09-11T00:13:19;15.00;99.90
61016;DHT22;46902;52.920;6.536;2022-09-11T00:15:46;15.10;99.90
61016;DHT22;46902;52.920;6.536;2022-09-11T00:18:13;14.90;99.90
61016;DHT22;46902;52.920;6.536;2022-09-11T00:20:49;14.90;99.90
61016;DHT22;46902;52.920;6.536;2022-09-11T00:23:17;15.00;99.90
61016;DHT22;46902;52.920;6.536;2022-09-11T00:25:44;14.90;99.90
61016;DHT22;46902;52.920;6.536;2022-09-11T00:28:12;15.00;99.90
61016;DHT22;46902;52.920;6.536;2022-09-11T00:30:41;14.90;99.90
61016;DHT22;46902;52.920;6.536;2022-09-11T00:33:08;14.90;99.90
61016;DHT22;46902;52.920;6.536;2022-09-11T00:35:33;15.00;99.90
61016;DHT22;46902;52.920;6.536;2022-09-11T00:37:59;14.90;99.90
61016;DHT22;46902;52.920;6.536;2022-09-11T00:40:24;14.90;99.90
61016;DHT22;46902;52.920;6.536;2022-09-11T00:42:53;14.90;99.90
61016;DHT22;46902;52.920;6.536;2022-09-11T00:45:26;14.90;99.90
61016;DHT22;46902;52.920;6.536;2022-09-11T00:47:56;14.90;99.90
61016;DHT22;46902;52.920;6.536;2022-09-11T00:50:26;14.80;99.90
61016;DHT22;46902;52.920;6.536;2022-09-11T00:52:59;14.80;99.90
61016;DHT22;46902;52.920;6.536;2022-09-11T00:55:28;14.80;99.90
61016;DHT22;46902;52.920;6.536;2022-09-11T00:58:09;14.70;99.90
61016;DHT22;46902;52.920;6.536;2022-09-11T01:00:38;14.70;99.90
61016;DHT22;46902;52.920;6.536;2022-09-11T01:03:06;14.70;99.90
61016;DHT22;46902;52.920;6.536;2022-09-11T01:05:35;14.70;99.90
61016;DHT22;46902;52.920;6.536;2022-09-11T01:08:01;14.60;99.90
61016;DHT22;46902;52.920;6.536;2022-09-11T01:13:34;14.60;99.90
61016;DHT22;46902;52.920;6.536;2022-09-11T01:16:20;14.60;99.90
61016;DHT22;46902;52.920;6.536;2022-09-11T01:22:15;14.50;99.90
61016;DHT22;46902;52.920;6.536;2022-09-11T01:25:07;14.40;99.90
61016;DHT22;46902;52.920;6.536;2022-09-11T01:28:12;14.40;99.90
61016;DHT22;46902;52.920;6.536;2022-09-11T01:30:46;14.30;99.90
61016;DHT22;46902;52.920;6.536;2022-09-11T01:33:32;14.30;99.90
61016;DHT22;46902;52.920;6.536;2022-09-11T01:36:50;14.40;99.90
61016;DHT22;46902;52.920;6.536;2022-09-11T01:38:55;14.30;99.90
61016;DHT22;46902;52.920;6.536;2022-09-11T01:44:09;14.30;99.90
61016;DHT22;46902;52.920;6.536;2022-09-11T01:46:43;14.30;99.90
61016;DHT22;46902;52.920;6.536;2022-09-11T01:51:49;14.20;99.90
61016;DHT22;46902;52.920;6.536;2022-09-11T01:54:19;14.20;99.90
61016;DHT22;46902;52.920;6.536;2022-09-11T01:56:52;14.20;99.90
61016;DHT22;46902;52.920;6.536;2022-09-11T01:59:23;14.20;99.90
61016;DHT22;46902;52.920;6.536;2022-09-11T02:01:56;14.10;99.90
61016;DHT22;46902;52.920;6.536;2022-09-11T02:04:28;14.10;99.90
61016;DHT22;46902;52.920;6.536;2022-09-11T02:07:08;14.10;99.90
61016;DHT22;46902;52.920;6.536;2022-09-11T02:09:39;14.10;99.90
61016;DHT22;46902;52.920;6.536;2022-09-11T02:12:08;14.10;99.90
61016;DHT22;46902;52.920;6.536;2022-09-11T02:14:38;14.10;99.90
61016;DHT22;46902;52.920;6.536;2022-09-11T02:17:22;14.10;99.90
61016;DHT22;46902;52.920;6.536;2022-09-11T02:19:55;14.10;99.90
61016;DHT22;46902;52.920;6.536;2022-09-11T02:22:21;14.10;99.90
61016;DHT22;46902;52.920;6.536;2022-09-11T02:24:47;14.10;99.90
61016;DHT22;46902;52.920;6.536;2022-09-11T02:27:17;14.00;99.90
61016;DHT22;46902;52.920;6.536;2022-09-11T02:29:45;14.00;99.90
61016;DHT22;46902;52.920;6.536;2022-09-11T02:32:11;14.00;99.90
61016;DHT22;46902;52.920;6.536;2022-09-11T02:34:38;14.00;99.90
61016;DHT22;46902;52.920;6.536;2022-09-11T02:45:14;14.10;99.90
61016;DHT22;46902;52.920;6.536;2022-09-11T02:50:40;14.00;99.90
61016;DHT22;46902;52.920;6.536;2022-09-11T02:53:41;14.00;99.90
61016;DHT22;46902;52.920;6.536;2022-09-11T02:58:59;14.00;99.90
61016;DHT22;46902;52.920;6.536;2022-09-11T03:01:25;13.90;99.90
61016;DHT22;46902;52.920;6.536;2022-09-11T03:03:51;13.90;99.90
61016;DHT22;46902;52.920;6.536;2022-09-11T03:06:22;13.90;99.90
61016;DHT22;46902;52.920;6.536;2022-09-11T03:08:48;13.90;99.90
61016;DHT22;46902;52.920;6.536;2022-09-11T03:11:14;13.80;99.90
61016;DHT22;46902;52.920;6.536;2022-09-11T03:13:40;13.80;99.90
61016;DHT22;46902;52.920;6.536;2022-09-11T03:16:06;13.80;99.90
61016;DHT22;46902;52.920;6.536;2022-09-11T03:18:32;13.80;99.90
61016;DHT22;46902;52.920;6.536;2022-09-11T03:20:59;13.70;99.90
61016;DHT22;46902;52.920;6.536;2022-09-11T03:23:26;13.70;99.90
61016;DHT22;46902;52.920;6.536;2022-09-11T03:25:51;13.70;99.90
61016;DHT22;46902;52.920;6.536;2022-09-11T03:28:17;13.70;99.90
61016;DHT22;46902;52.920;6.536;2022-09-11T03:30:43;13.70;99.90
61016;DHT22;46902;52.920;6.536;2022-09-11T03:33:08;13.70;99.90
61016;DHT22;46902;52.920;6.536;2022-09-11T03:35:34;13.60;99.90
61016;DHT22;46902;52.920;6.536;2022-09-11T03:38:00;13.60;99.90
61016;DHT22;46902;52.920;6.536;2022-09-11T03:40:26;13.60;99.90
61016;DHT22;46902;52.920;6.536;2022-09-11T03:42:51;13.60;99.90
61016;DHT22;46902;52.920;6.536;2022-09-11T03:45:18;13.70;99.90
61016;DHT22;46902;52.920;6.536;2022-09-11T03:47:44;13.70;99.90
61016;DHT22;46902;52.920;6.536;2022-09-11T03:50:11;13.70;99.90
61016;DHT22;46902;52.920;6.536;2022-09-11T03:52:37;13.70;99.90
61016;DHT22;46902;52.920;6.536;2022-09-11T03:55:04;13.70;99.90
61016;DHT22;46902;52.920;6.536;2022-09-11T03:57:33;13.70;99.90
61016;DHT22;46902;52.920;6.536;2022-09-11T03:59:59;13.70;99.90
61016;DHT22;46902;52.920;6.536;2022-09-11T04:02:26;13.70;99.90
61016;DHT22;46902;52.920;6.536;2022-09-11T04:04:51;13.70;99.90
61016;DHT22;46902;52.920;6.536;2022-09-11T04:07:17;13.70;99.90
61016;DHT22;46902;52.920;6.536;2022-09-11T04:09:42;13.70;99.90
61016;DHT22;46902;52.920;6.536;2022-09-11T04:12:08;13.60;99.90
61016;DHT22;46902;52.920;6.536;2022-09-11T04:14:33;13.60;99.90
61016;DHT22;46902;52.920;6.536;2022-09-11T04:16:59;13.60;99.90
61016;DHT22;46902;52.920;6.536;2022-09-11T04:19:24;13.60;99.90
61016;DHT22;46902;52.920;6.536;2022-09-11T04:21:50;13.50;99.90
61016;DHT22;46902;52.920;6.536;2022-09-11T04:24:16;13.50;99.90
61016;DHT22;46902;52.920;6.536;2022-09-11T04:26:41;13.50;99.90
61016;DHT22;46902;52.920;6.536;2022-09-11T04:29:07;13.50;99.90
61016;DHT22;46902;52.920;6.536;2022-09-11T04:31:34;13.50;99.90
61016;DHT22;46902;52.920;6.536;2022-09-11T04:34:00;13.60;99.90
61016;DHT22;46902;52.920;6.536;2022-09-11T04:36:26;13.50;99.90
61016;DHT22;46902;52.920;6.536;2022-09-11T04:38:55;13.50;99.90
61016;DHT22;46902;52.920;6.536;2022-09-11T04:41:23;13.50;99.90
61016;DHT22;46902;52.920;6.536;2022-09-11T04:43:52;13.50;99.90
61016;DHT22;46902;52.920;6.536;2022-09-11T04:46:18;13.50;99.90
61016;DHT22;46902;52.920;6.536;2022-09-11T04:48:44;13.50;99.90
61016;DHT22;46902;52.920;6.536;2022-09-11T04:51:21;13.60;99.90
61016;DHT22;46902;52.920;6.536;2022-09-11T04:53:48;13.60;99.90
61016;DHT22;46902;52.920;6.536;2022-09-11T04:56:15;13.50;99.90
61016;DHT22;46902;52.920;6.536;2022-09-11T04:58:41;13.60;99.90
61016;DHT22;46902;52.920;6.536;2022-09-11T05:01:12;13.60;99.90
61016;DHT22;46902;52.920;6.536;2022-09-11T05:03:39;13.60;99.90
61016;DHT22;46902;52.920;6.536;2022-09-11T05:06:05;13.60;99.90
61016;DHT22;46902;52.920;6.536;2022-09-11T05:08:32;13.60;99.90
61016;DHT22;46902;52.920;6.536;2022-09-11T05:10:58;13.60;99.90
61016;DHT22;46902;52.920;6.536;2022-09-11T05:13:25;13.60;99.90
61016;DHT22;46902;52.920;6.536;2022-09-11T05:15:51;13.70;99.90
61016;DHT22;46902;52.920;6.536;2022-09-11T05:18:16;13.60;99.90
61016;DHT22;46902;52.920;6.536;2022-09-11T05:20:42;13.70;99.90
61016;DHT22;46902;52.920;6.536;2022-09-11T05:23:10;13.70;99.90
61016;DHT22;46902;52.920;6.536;2022-09-11T05:25:36;13.70;99.90
61016;DHT22;46902;52.920;6.536;2022-09-11T05:28:03;13.70;99.90
61016;DHT22;46902;52.920;6.536;2022-09-11T05:30:29;13.70;99.90
61016;DHT22;46902;52.920;6.536;2022-09-11T05:32:54;13.70;99.90
61016;DHT22;46902;52.920;6.536;2022-09-11T05:35:22;13.70;99.90
61016;DHT22;46902;52.920;6.536;2022-09-11T05:37:49;13.80;99.90
61016;DHT22;46902;52.920;6.536;2022-09-11T05:40:15;13.80;99.90
61016;DHT22;46902;52.920;6.536;2022-09-11T05:42:40;13.80;99.90
61016;DHT22;46902;52.920;6.536;2022-09-11T05:45:06;13.90;99.90
61016;DHT22;46902;52.920;6.536;2022-09-11T05:47:32;13.90;99.90
61016;DHT22;46902;52.920;6.536;2022-09-11T05:49:58;13.80;99.90
61016;DHT22;46902;52.920;6.536;2022-09-11T05:52:24;13.80;99.90
61016;DHT22;46902;52.920;6.536;2022-09-11T05:54:50;13.80;99.90
61016;DHT22;46902;52.920;6.536;2022-09-11T05:57:16;13.80;99.90
61016;DHT22;46902;52.920;6.536;2022-09-11T05:59:44;13.90;99.90
61016;DHT22;46902;52.920;6.536;2022-09-11T06:02:10;13.90;99.90
61016;DHT22;46902;52.920;6.536;2022-09-11T06:04:36;14.00;99.90
61016;DHT22;46902;52.920;6.536;2022-09-11T06:07:01;14.10;99.90
61016;DHT22;46902;52.920;6.536;2022-09-11T06:09:30;14.10;99.90
61016;DHT22;46902;52.920;6.536;2022-09-11T06:11:55;14.20;99.90
61016;DHT22;46902;52.920;6.536;2022-09-11T06:14:21;14.20;99.90
61016;DHT22;46902;52.920;6.536;2022-09-11T06:16:46;14.30;99.90
61016;DHT22;46902;52.920;6.536;2022-09-11T06:19:12;14.30;99.90
61016;DHT22;46902;52.920;6.536;2022-09-11T06:21:38;14.30;99.90
61016;DHT22;46902;52.920;6.536;2022-09-11T06:24:05;14.30;99.90
61016;DHT22;46902;52.920;6.536;2022-09-11T06:26:31;14.40;99.90
61016;DHT22;46902;52.920;6.536;2022-09-11T06:28:56;14.50;99.90
61016;DHT22;46902;52.920;6.536;2022-09-11T06:31:24;14.50;99.90
61016;DHT22;46902;52.920;6.536;2022-09-11T06:33:51;14.60;99.90
61016;DHT22;46902;52.920;6.536;2022-09-11T06:36:19;14.70;99.90
61016;DHT22;46902;52.920;6.536;2022-09-11T06:38:45;14.80;99.90
61016;DHT22;46902;52.920;6.536;2022-09-11T06:41:15;14.90;99.90
61016;DHT22;46902;52.920;6.536;2022-09-11T06:43:42;14.90;99.90
61016;DHT22;46902;52.920;6.536;2022-09-11T06:46:16;15.00;99.90
61016;DHT22;46902;52.920;6.536;2022-09-11T06:48:43;15.10;99.90
61016;DHT22;46902;52.920;6.536;2022-09-11T06:51:11;15.10;99.90
61016;DHT22;46902;52.920;6.536;2022-09-11T06:53:38;15.20;99.90
61016;DHT22;46902;52.920;6.536;2022-09-11T06:56:05;15.30;99.90
61016;DHT22;46902;52.920;6.536;2022-09-11T06:58:32;15.30;99.90
61016;DHT22;46902;52.920;6.536;2022-09-11T07:01:02;15.50;99.90
61016;DHT22;46902;52.920;6.536;2022-09-11T07:03:28;15.50;99.90
61016;DHT22;46902;52.920;6.536;2022-09-11T07:05:53;15.60;99.90
61016;DHT22;46902;52.920;6.536;2022-09-11T07:08:19;15.60;99.90
61016;DHT22;46902;52.920;6.536;2022-09-11T07:10:44;15.70;99.90
61016;DHT22;46902;52.920;6.536;2022-09-11T07:13:10;15.80;99.90
61016;DHT22;46902;52.920;6.536;2022-09-11T07:15:36;15.90;99.90
61016;DHT22;46902;52.920;6.536;2022-09-11T07:18:01;15.90;99.90
61016;DHT22;46902;52.920;6.536;2022-09-11T07:20:27;16.00;99.90
61016;DHT22;46902;52.920;6.536;2022-09-11T07:22:53;16.00;99.90
61016;DHT22;46902;52.920;6.536;2022-09-11T07:25:18;16.10;99.90
61016;DHT22;46902;52.920;6.536;2022-09-11T07:27:44;16.20;99.90
61016;DHT22;46902;52.920;6.536;2022-09-11T07:30:11;16.30;99.90
61016;DHT22;46902;52.920;6.536;2022-09-11T07:32:36;16.30;99.90
61016;DHT22;46902;52.920;6.536;2022-09-11T07:35:03;16.40;99.90
61016;DHT22;46902;52.920;6.536;2022-09-11T07:37:29;16.50;99.90
61016;DHT22;46902;52.920;6.536;2022-09-11T07:39:56;16.60;99.90
61016;DHT22;46902;52.920;6.536;2022-09-11T07:42:21;16.70;99.90
61016;DHT22;46902;52.920;6.536;2022-09-11T07:44:47;16.80;99.90
61016;DHT22;46902;52.920;6.536;2022-09-11T07:47:13;16.90;99.90
61016;DHT22;46902;52.920;6.536;2022-09-11T07:49:38;17.00;99.90
61016;DHT22;46902;52.920;6.536;2022-09-11T07:52:04;17.10;99.90
61016;DHT22;46902;52.920;6.536;2022-09-11T07:54:30;17.20;99.90
61016;DHT22;46902;52.920;6.536;2022-09-11T07:56:55;17.40;99.90
61016;DHT22;46902;52.920;6.536;2022-09-11T07:59:22;17.50;99.90
61016;DHT22;46902;52.920;6.536;2022-09-11T08:01:48;17.60;99.90
61016;DHT22;46902;52.920;6.536;2022-09-11T08:04:15;17.80;99.90
61016;DHT22;46902;52.920;6.536;2022-09-11T08:06:41;17.90;99.90
61016;DHT22;46902;52.920;6.536;2022-09-11T08:09:10;18.00;99.90
61016;DHT22;46902;52.920;6.536;2022-09-11T08:11:40;18.10;99.90
61016;DHT22;46902;52.920;6.536;2022-09-11T08:14:07;18.20;99.90
61016;DHT22;46902;52.920;6.536;2022-09-11T08:16:36;18.40;99.90
61016;DHT22;46902;52.920;6.536;2022-09-11T08:19:02;18.60;99.90
61016;DHT22;46902;52.920;6.536;2022-09-11T08:21:30;18.70;99.90
61016;DHT22;46902;52.920;6.536;2022-09-11T08:23:57;18.90;99.90
61016;DHT22;46902;52.920;6.536;2022-09-11T08:26:25;19.00;99.90
61016;DHT22;46902;52.920;6.536;2022-09-11T08:28:52;19.20;99.90
61016;DHT22;46902;52.920;6.536;2022-09-11T08:31:20;19.30;99.90
61016;DHT22;46902;52.920;6.536;2022-09-11T08:33:46;19.30;99.90
61016;DHT22;46902;52.920;6.536;2022-09-11T08:36:14;19.50;99.90
61016;DHT22;46902;52.920;6.536;2022-09-11T08:38:40;19.80;99.90
61016;DHT22;46902;52.920;6.536;2022-09-11T08:43:50;20.10;99.90
61016;DHT22;46902;52.920;6.536;2022-09-11T08:46:20;20.20;99.90
61016;DHT22;46902;52.920;6.536;2022-09-11T08:49:02;20.40;99.90
61016;DHT22;46902;52.920;6.536;2022-09-11T08:51:31;20.70;99.90
61016;DHT22;46902;52.920;6.536;2022-09-11T08:53:58;20.80;99.90
61016;DHT22;46902;52.920;6.536;2022-09-11T08:56:28;20.90;99.90
61016;DHT22;46902;52.920;6.536;2022-09-11T09:01:38;20.90;99.90
61016;DHT22;46902;52.920;6.536;2022-09-11T09:04:37;20.90;99.90
61016;DHT22;46902;52.920;6.536;2022-09-11T09:10:17;20.90;99.90
61016;DHT22;46902;52.920;6.536;2022-09-11T09:13:17;20.90;99.90
61016;DHT22;46902;52.920;6.536;2022-09-11T09:21:12;21.90;99.90
61016;DHT22;46902;52.920;6.536;2022-09-11T09:24:02;22.20;99.90
61016;DHT22;46902;52.920;6.536;2022-09-11T09:26:33;22.40;99.90
61016;DHT22;46902;52.920;6.536;2022-09-11T09:29:02;22.40;99.90
61016;DHT22;46902;52.920;6.536;2022-09-11T09:31:30;22.30;99.90
61016;DHT22;46902;52.920;6.536;2022-09-11T09:34:05;22.00;99.90
61016;DHT22;46902;52.920;6.536;2022-09-11T09:36:37;21.80;99.90
61016;DHT22;46902;52.920;6.536;2022-09-11T09:39:11;21.60;99.90
61016;DHT22;46902;52.920;6.536;2022-09-11T09:44:53;22.00;99.90
61016;DHT22;46902;52.920;6.536;2022-09-11T09:47:25;22.40;99.90
61016;DHT22;46902;52.920;6.536;2022-09-11T09:49:52;22.90;99.90
61016;DHT22;46902;52.920;6.536;2022-09-11T09:52:21;23.30;99.90
61016;DHT22;46902;52.920;6.536;2022-09-11T09:54:56;23.80;99.90
61016;DHT22;46902;52.920;6.536;2022-09-11T09:57:29;24.20;99.90
61016;DHT22;46902;52.920;6.536;2022-09-11T10:02:52;24.80;99.90
61016;DHT22;46902;52.920;6.536;2022-09-11T10:05:35;25.10;99.90
61016;DHT22;46902;52.920;6.536;2022-09-11T10:08:18;25.30;99.90
61016;DHT22;46902;52.920;6.536;2022-09-11T10:11:00;25.20;99.80
61016;DHT22;46902;52.920;6.536;2022-09-11T10:13:29;24.90;99.90
61016;DHT22;46902;52.920;6.536;2022-09-11T10:15:57;24.40;99.90
61016;DHT22;46902;52.920;6.536;2022-09-11T10:21:19;23.70;99.90
61016;DHT22;46902;52.920;6.536;2022-09-11T10:23:50;23.60;99.90
61016;DHT22;46902;52.920;6.536;2022-09-11T10:29:49;24.60;99.90
61016;DHT22;46902;52.920;6.536;2022-09-11T10:32:14;25.10;99.90
61016;DHT22;46902;52.920;6.536;2022-09-11T10:34:42;25.70;96.60
61016;DHT22;46902;52.920;6.536;2022-09-11T10:39:41;26.30;85.60
61016;DHT22;46902;52.920;6.536;2022-09-11T10:44:43;26.60;85.70
61016;DHT22;46902;52.920;6.536;2022-09-11T10:47:21;26.70;78.10
61016;DHT22;46902;52.920;6.536;2022-09-11T10:49:47;26.50;76.90
61016;DHT22;46902;52.920;6.536;2022-09-11T11:02:44;26.80;72.70
61016;DHT22;46902;52.920;6.536;2022-09-11T11:10:55;27.70;73.90
61016;DHT22;46902;52.920;6.536;2022-09-11T11:16:03;27.80;66.40
61016;DHT22;46902;52.920;6.536;2022-09-11T11:18:44;27.30;67.30
61016;DHT22;46902;52.920;6.536;2022-09-11T11:32:32;25.80;77.10
61016;DHT22;46902;52.920;6.536;2022-09-11T11:37:47;25.30;83.70
61016;DHT22;46902;52.920;6.536;2022-09-11T11:40:35;25.00;84.80
61016;DHT22;46902;52.920;6.536;2022-09-11T11:43:10;24.80;89.10
61016;DHT22;46902;52.920;6.536;2022-09-11T11:45:46;24.50;91.80
61016;DHT22;46902;52.920;6.536;2022-09-11T11:48:31;24.20;93.90
61016;DHT22;46902;52.920;6.536;2022-09-11T11:51:05;24.00;95.30
61016;DHT22;46902;52.920;6.536;2022-09-11T11:53:37;23.90;96.50
61016;DHT22;46902;52.920;6.536;2022-09-11T11:58:56;23.60;99.90
61016;DHT22;46902;52.920;6.536;2022-09-11T12:07:03;23.40;99.90
61016;DHT22;46902;52.920;6.536;2022-09-11T12:09:29;23.40;99.90
61016;DHT22;46902;52.920;6.536;2022-09-11T12:12:03;23.30;99.90
61016;DHT22;46902;52.920;6.536;2022-09-11T12:14:31;23.40;99.90
61016;DHT22;46902;52.920;6.536;2022-09-11T12:17:16;23.50;99.90
61016;DHT22;46902;52.920;6.536;2022-09-11T12:22:43;24.40;93.70
61016;DHT22;46902;52.920;6.536;2022-09-11T12:32:51;26.10;88.50
61016;DHT22;46902;52.920;6.536;2022-09-11T12:36:08;26.30;90.30
61016;DHT22;46902;52.920;6.536;2022-09-11T12:38:34;26.40;90.00
61016;DHT22;46902;52.920;6.536;2022-09-11T12:41:05;26.30;88.50
61016;DHT22;46902;52.920;6.536;2022-09-11T12:51:31;26.50;92.20
61016;DHT22;46902;52.920;6.536;2022-09-11T12:53:59;26.90;89.20
61016;DHT22;46902;52.920;6.536;2022-09-11T12:56:28;26.90;85.90
61016;DHT22;46902;52.920;6.536;2022-09-11T12:58:58;26.80;86.80
61016;DHT22;46902;52.920;6.536;2022-09-11T13:01:31;26.70;87.00
61016;DHT22;46902;52.920;6.536;2022-09-11T13:04:01;26.60;89.00
61016;DHT22;46902;52.920;6.536;2022-09-11T13:06:50;26.40;89.40
61016;DHT22;46902;52.920;6.536;2022-09-11T13:09:45;26.20;88.90
61016;DHT22;46902;52.920;6.536;2022-09-11T13:14:49;25.50;92.50
61016;DHT22;46902;52.920;6.536;2022-09-11T13:17:24;25.10;96.20
61016;DHT22;46902;52.920;6.536;2022-09-11T13:19:52;24.90;99.90
61016;DHT22;46902;52.920;6.536;2022-09-11T13:22:23;24.70;99.90
61016;DHT22;46902;52.920;6.536;2022-09-11T13:24:50;24.50;99.90
61016;DHT22;46902;52.920;6.536;2022-09-11T13:27:24;24.40;99.90
61016;DHT22;46902;52.920;6.536;2022-09-11T13:29:54;24.30;99.90
61016;DHT22;46902;52.920;6.536;2022-09-11T13:32:21;24.20;99.90
61016;DHT22;46902;52.920;6.536;2022-09-11T13:34:51;24.10;99.90
61016;DHT22;46902;52.920;6.536;2022-09-11T13:37:35;24.00;99.90
61016;DHT22;46902;52.920;6.536;2022-09-11T13:40:04;23.90;99.90
61016;DHT22;46902;52.920;6.536;2022-09-11T13:42:33;23.80;99.90
61016;DHT22;46902;52.920;6.536;2022-09-11T13:45:00;23.70;99.90
61016;DHT22;46902;52.920;6.536;2022-09-11T13:47:28;23.60;99.90
61016;DHT22;46902;52.920;6.536;2022-09-11T13:50:02;23.70;99.90
61016;DHT22;46902;52.920;6.536;2022-09-11T13:52:31;24.00;99.90
61016;DHT22;46902;52.920;6.536;2022-09-11T13:55:00;24.00;99.90
61016;DHT22;46902;52.920;6.536;2022-09-11T13:57:28;24.00;99.90
61016;DHT22;46902;52.920;6.536;2022-09-11T13:59:59;23.90;99.90
61016;DHT22;46902;52.920;6.536;2022-09-11T14:07:31;24.50;99.90
61016;DHT22;46902;52.920;6.536;2022-09-11T14:10:12;24.50;99.90
61016;DHT22;46902;52.920;6.536;2022-09-11T14:13:04;24.40;99.90
61016;DHT22;46902;52.920;6.536;2022-09-11T14:15:50;24.50;99.90
61016;DHT22;46902;52.920;6.536;2022-09-11T14:20:48;24.70;99.90
61016;DHT22;46902;52.920;6.536;2022-09-11T14:23:19;24.80;99.90
61016;DHT22;46902;52.920;6.536;2022-09-11T14:26:07;24.90;99.10
61016;DHT22;46902;52.920;6.536;2022-09-11T14:28:42;25.00;98.70
61016;DHT22;46902;52.920;6.536;2022-09-11T14:31:10;25.10;98.10
61016;DHT22;46902;52.920;6.536;2022-09-11T14:33:36;25.10;96.80
61016;DHT22;46902;52.920;6.536;2022-09-11T14:36:19;25.20;96.30
61016;DHT22;46902;52.920;6.536;2022-09-11T14:38:45;25.30;95.00
61016;DHT22;46902;52.920;6.536;2022-09-11T14:41:12;25.40;95.50
61016;DHT22;46902;52.920;6.536;2022-09-11T14:43:38;25.40;94.20
61016;DHT22;46902;52.920;6.536;2022-09-11T14:46:04;25.50;93.00
61016;DHT22;46902;52.920;6.536;2022-09-11T14:48:33;25.50;91.60
61016;DHT22;46902;52.920;6.536;2022-09-11T14:51:01;25.50;90.50
61016;DHT22;46902;52.920;6.536;2022-09-11T14:53:29;25.50;91.70
61016;DHT22;46902;52.920;6.536;2022-09-11T14:55:57;25.50;91.30
61016;DHT22;46902;52.920;6.536;2022-09-11T14:58:24;25.50;89.50
61016;DHT22;46902;52.920;6.536;2022-09-11T15:00:50;25.60;89.00
61016;DHT22;46902;52.920;6.536;2022-09-11T15:03:16;25.50;85.60
61016;DHT22;46902;52.920;6.536;2022-09-11T15:05:42;25.50;86.50
61016;DHT22;46902;52.920;6.536;2022-09-11T15:08:09;25.50;88.90
61016;DHT22;46902;52.920;6.536;2022-09-11T15:10:35;25.50;90.60
61016;DHT22;46902;52.920;6.536;2022-09-11T15:13:01;25.40;89.50
61016;DHT22;46902;52.920;6.536;2022-09-11T15:15:28;25.40;89.20
61016;DHT22;46902;52.920;6.536;2022-09-11T15:17:54;25.10;90.10
61016;DHT22;46902;52.920;6.536;2022-09-11T15:20:20;24.90;91.30
61016;DHT22;46902;52.920;6.536;2022-09-11T15:22:45;24.70;93.20
61016;DHT22;46902;52.920;6.536;2022-09-11T15:25:13;24.70;94.90
61016;DHT22;46902;52.920;6.536;2022-09-11T15:27:39;24.60;95.40
61016;DHT22;46902;52.920;6.536;2022-09-11T15:30:04;24.50;95.80
61016;DHT22;46902;52.920;6.536;2022-09-11T15:32:30;24.40;96.00
61016;DHT22;46902;52.920;6.536;2022-09-11T15:34:56;24.40;95.80
61016;DHT22;46902;52.920;6.536;2022-09-11T15:37:22;24.30;93.20
61016;DHT22;46902;52.920;6.536;2022-09-11T15:39:50;24.20;93.90
61016;DHT22;46902;52.920;6.536;2022-09-11T15:42:16;24.00;95.30
61016;DHT22;46902;52.920;6.536;2022-09-11T15:44:41;23.90;95.40
61016;DHT22;46902;52.920;6.536;2022-09-11T15:47:07;23.80;96.70
61016;DHT22;46902;52.920;6.536;2022-09-11T15:49:38;23.60;98.90
61016;DHT22;46902;52.920;6.536;2022-09-11T15:52:04;23.60;98.70
61016;DHT22;46902;52.920;6.536;2022-09-11T15:54:30;23.40;99.90
61016;DHT22;46902;52.920;6.536;2022-09-11T15:56:55;23.30;99.90
61016;DHT22;46902;52.920;6.536;2022-09-11T15:59:21;23.20;99.90
61016;DHT22;46902;52.920;6.536;2022-09-11T16:01:47;23.20;99.90
61016;DHT22;46902;52.920;6.536;2022-09-11T16:04:16;23.10;99.90
61016;DHT22;46902;52.920;6.536;2022-09-11T16:06:44;23.10;99.90
61016;DHT22;46902;52.920;6.536;2022-09-11T16:09:13;23.00;99.90
61016;DHT22;46902;52.920;6.536;2022-09-11T16:11:39;23.00;99.90
61016;DHT22;46902;52.920;6.536;2022-09-11T16:14:05;22.90;99.90
61016;DHT22;46902;52.920;6.536;2022-09-11T16:16:31;22.80;99.90
61016;DHT22;46902;52.920;6.536;2022-09-11T16:18:56;22.80;99.90
61016;DHT22;46902;52.920;6.536;2022-09-11T16:21:23;22.80;99.90
61016;DHT22;46902;52.920;6.536;2022-09-11T16:23:49;22.70;99.90
61016;DHT22;46902;52.920;6.536;2022-09-11T16:26:17;22.70;99.90
61016;DHT22;46902;52.920;6.536;2022-09-11T16:28:43;22.60;99.90
61016;DHT22;46902;52.920;6.536;2022-09-11T16:31:10;22.60;99.90
61016;DHT22;46902;52.920;6.536;2022-09-11T16:33:40;22.60;99.90
61016;DHT22;46902;52.920;6.536;2022-09-11T16:36:11;22.50;99.90
61016;DHT22;46902;52.920;6.536;2022-09-11T16:38:38;22.50;99.90
61016;DHT22;46902;52.920;6.536;2022-09-11T16:41:16;22.50;99.90
61016;DHT22;46902;52.920;6.536;2022-09-11T16:43:48;22.50;99.90
61016;DHT22;46902;52.920;6.536;2022-09-11T16:46:17;22.40;99.90
61016;DHT22;46902;52.920;6.536;2022-09-11T16:48:44;22.30;99.90
61016;DHT22;46902;52.920;6.536;2022-09-11T16:51:11;22.30;99.90
61016;DHT22;46902;52.920;6.536;2022-09-11T16:53:38;22.30;99.90
61016;DHT22;46902;52.920;6.536;2022-09-11T16:56:05;22.30;99.90
61016;DHT22;46902;52.920;6.536;2022-09-11T16:58:31;22.20;99.90
61016;DHT22;46902;52.920;6.536;2022-09-11T17:01:09;22.20;99.90
61016;DHT22;46902;52.920;6.536;2022-09-11T17:03:36;22.10;99.90
61016;DHT22;46902;52.920;6.536;2022-09-11T17:06:02;22.00;99.90
61016;DHT22;46902;52.920;6.536;2022-09-11T17:08:29;22.00;99.90
61016;DHT22;46902;52.920;6.536;2022-09-11T17:10:57;21.90;99.90
61016;DHT22;46902;52.920;6.536;2022-09-11T17:13:23;21.80;99.90
61016;DHT22;46902;52.920;6.536;2022-09-11T17:15:49;21.70;99.90
61016;DHT22;46902;52.920;6.536;2022-09-11T17:18:15;21.70;99.90
61016;DHT22;46902;52.920;6.536;2022-09-11T17:20:41;21.60;99.90
61016;DHT22;46902;52.920;6.536;2022-09-11T17:23:07;21.60;99.90
61016;DHT22;46902;52.920;6.536;2022-09-11T17:25:39;21.50;99.90
61016;DHT22;46902;52.920;6.536;2022-09-11T17:28:06;21.40;99.90
61016;DHT22;46902;52.920;6.536;2022-09-11T17:30:35;21.30;99.90
61016;DHT22;46902;52.920;6.536;2022-09-11T17:33:01;21.30;99.90
61016;DHT22;46902;52.920;6.536;2022-09-11T17:35:27;21.30;99.90
61016;DHT22;46902;52.920;6.536;2022-09-11T17:37:53;21.30;99.90
61016;DHT22;46902;52.920;6.536;2022-09-11T17:40:18;21.20;99.90
61016;DHT22;46902;52.920;6.536;2022-09-11T17:42:44;21.30;99.90
61016;DHT22;46902;52.920;6.536;2022-09-11T17:45:10;21.20;99.90
61016;DHT22;46902;52.920;6.536;2022-09-11T17:47:37;21.20;99.90
61016;DHT22;46902;52.920;6.536;2022-09-11T17:50:05;21.20;99.90